Historyczne dane pomiarowe

Dodano dane terminowe – wersja testowa.

Dane z okresu 1951-2019

Wersja bazy: 1.34 [2019-03-16, lista zmian], aktualizacja planowana na 2019-04-15

Dane meteo z obszaru Polski uzyskane na podstawie danych udostępnionych przez Instytut Meteorologii i Gospodarki Wodnej – Państwowy Instytut Badawczy.

 

Wybierz Datę:    

       

TemperaturaWilgotnośćWiatrCiśnienieOpadyŚniegCzas trwania zjawisk
 Stacja t tx tn tng RH VA  wxwx mslp ppp RRR   cm mm wxwxwxwxwxwxwx
1987-08-14 16.3 21.4 9.8 7.1 74.5- 5.7 2.3---- 4.3------------
1987-08-13 14.0 15.9 8.2 6.9 86.0- 7.0 2.7---- 0.0------------
1987-08-12 14.3 18.8 11.2 9.8 70.5- 5.0 3.7---- 0.0------------
1987-08-11 13.2 15.9 11.7 11.3 89.3- 5.3 4.0---- 5.5------------
1987-08-10 15.2 18.9 13.7 12.8 92.3- 8.0 4.0---- 1.9------------
1987-08-09 17.3 22.4 11.8 9.4 73.3- 5.3 3.0---- 5.0------------
1987-08-08 14.7 21.4 8.4 6.1 70.3- 4.3 4.0---- 0.0------------
1987-08-07 12.8 18.9 9.2 8.1 71.3- 6.0 4.0---- 0.0------------
1987-08-06 12.5 16.5 9.8 6.9 78.5- 7.0 3.7---- 4.6------------
1987-08-05 13.2 18.3 8.2 6.9 70.5- 2.3 4.3---- 0.0------------
1987-08-04 14.9 17.7 11.6 9.2 72.8- 5.7 4.3---- 0.2------------
1987-08-03 14.0 18.2 11.3 9.3 74.8- 5.3 3.3---- 0.0------------
1987-08-02 14.8 18.7 12.4 10.7 75.8- 3.7 4.3---- 0.3------------
1987-08-01 15.7 20.4 11.8 10.3 83.8- 8.0 3.3---- 6.9------------
1987-07-31 16.0 20.8 14.3 12.7 93.3- 7.3 3.3---- 14.0------------
1987-07-30 18.1 23.5 11.3 9.3 66.8- 3.7 1.0---- 2.4------------
1987-07-29 14.9 19.5 11.0 9.3 75.5- 6.3 2.7---- 0.0------------
1987-07-28 14.7 18.9 11.9 11.1 76.3- 6.0 4.7---- 0.4------------
1987-07-27 12.0 16.0 8.4 6.4 79.0- 6.3 6.0---- 4.1------------
1987-07-26 14.7 18.7 13.0 11.3 74.5- 5.0 2.7---- 0.0------------
1987-07-25 18.3 23.0 14.7 12.9 75.3- 5.7 3.3---- 0.0------------
1987-07-24 21.3 27.0 14.9 13.4 68.5- 3.0 3.0---- 0.0------------
1987-07-23 22.0 27.6 16.1 14.8 72.5- 2.0 1.0---- 0.0------------
1987-07-22 20.2 24.8 16.1 13.8 83.8- 7.0 1.3---- 0.0------------
1987-07-21 19.6 25.3 12.7 10.8 71.8- 2.0 0.7---- 0.0------------
1987-07-20 18.0 21.5 15.6 15.3 86.3- 6.7 3.0---- 0.0------------
1987-07-19 20.1 24.1 15.1 14.0 79.3- 8.0 4.3---- 0.3------------
1987-07-18 20.9 24.6 17.2 16.8 81.5- 4.7 2.0---- 0.0------------
1987-07-17 20.1 24.9 13.8 13.3 74.3- 3.7 4.7---- 2.3------------
1987-07-16 18.6 24.3 10.4 8.1 66.5- 4.3 2.0---- 0.0------------
1987-07-15 17.3 22.5 8.6 6.1 62.5- 1.7 2.3---- 0.0------------
1987-07-14 15.8 20.4 10.6 9.0 71.8- 3.7 4.0---- 0.0------------
1987-07-13 16.8 20.6 13.2 11.8 76.0- 5.3 3.7---- 0.0------------
1987-07-12 18.3 23.2 15.1 14.6 89.8- 8.0 3.3---- 12.3------------
1987-07-11 14.8 20.1 10.8 8.5 78.3- 7.3 3.3---- 16.3------------
1987-07-10 14.0 19.0 10.6 9.0 71.8- 3.0 6.3---- 0.7------------
1987-07-09 18.3 25.8 15.6 14.8 83.8- 7.0 3.3---- 0.5------------
1987-07-08 23.7 29.6 16.1 12.8 57.3- 3.7 3.7---- 2.7------------
1987-07-07 21.3 26.8 11.8 9.1 57.0- 0.7 1.7---- 0.0------------
1987-07-06 18.9 24.9 10.5 7.2 60.8- 1.3 1.7---- 0.0------------
1987-07-05 18.3 22.7 11.8 10.3 64.5- 3.7 3.7---- 0.0------------
1987-07-04 18.2 22.4 12.2 12.1 62.5- 4.3 2.3---- 0.0------------
1987-07-03 18.7 23.4 12.4 10.2 66.5- 2.3 2.3---- 0.0------------
1987-07-02 19.9 25.0 16.7 16.3 70.3- 5.7 3.0---- 0.0------------
1987-07-01 25.5 31.5 20.6 18.9 68.5- 3.0 3.0---- 0.6------------
1987-06-30 24.4 29.0 19.0 16.5 72.5- 2.7 1.0---- 0.0------------
1987-06-29 17.9 23.6 8.1 6.8 76.3- 4.7 2.3---- 0.6------------
1987-06-28 17.4 21.2 13.8 11.8 82.0- 5.3 2.0---- 0.0------------
1987-06-27 18.5 22.5 16.2 15.3 79.5- 6.0 1.3---- 0.0------------
1987-06-26 17.0 22.6 11.0 8.3 71.5- 5.3 4.3---- 2.1------------
1987-06-25 12.6 18.3 10.7 11.0 91.3- 5.7 2.0---- 4.7------------
1987-06-24 16.8 20.5 13.6 11.8 69.8- 5.3 3.7---- 8.3------------
1987-06-23 15.9 21.4 12.9 11.8 84.3- 6.0 2.3---- 0.0------------
1987-06-22 20.0 25.1 11.8 9.4 64.8- 3.3 1.7---- 0.0------------
1987-06-21 18.2 24.5 9.7 7.5 67.0- 3.3 2.3---- 0.0------------
1987-06-20 16.6 22.1 9.9 7.8 65.5- 2.3 3.0---- 0.0------------
1987-06-19 12.3 16.7 7.8 6.1 75.8- 4.3 3.3---- 0.7------------
1987-06-18 11.7 17.0 4.7 4.5 75.5- 4.0 2.7---- 0.7------------
1987-06-17 12.3 14.9 11.3 10.5 73.3- 6.0 4.3---- 0.0------------
1987-06-16 14.3 24.8 11.3 10.8 80.8- 8.0 6.0---- 2.5------------
985.0 ms

 

Źródłem pochodzenia danych jest Instytut Meteorologii i Gospodarki Wodnej – Państwowy Instytut Badawczy. Dane Instytutu Meteorologii i Gospodarki Wodnej – Państwowego Instytutu Badawczego zostały przetworzone.

Dane źródłowe można odnaleźć na stronie https://dane.imgw.pl